createdAt,value
2022-09-24T00:01:16.636Z,75.69
2022-09-24T00:03:50.084Z,75.60
2022-09-24T00:06:19.188Z,75.61
2022-09-24T00:08:47.155Z,75.40
2022-09-24T00:11:14.017Z,76.40
2022-09-24T00:13:41.100Z,76.08
2022-09-24T00:16:12.914Z,75.98
2022-09-24T00:18:40.211Z,75.51
2022-09-24T00:21:16.041Z,75.26
2022-09-24T00:23:43.160Z,75.75
2022-09-24T00:26:30.440Z,76.02
2022-09-24T00:28:58.205Z,75.80
2022-09-24T00:31:25.229Z,75.30
2022-09-24T00:33:52.378Z,75.73
2022-09-24T00:36:20.775Z,75.59
2022-09-24T00:38:52.575Z,75.60
2022-09-24T00:41:21.106Z,75.98
2022-09-24T00:43:49.003Z,76.15
2022-09-24T00:46:18.087Z,76.05
2022-09-24T00:48:47.342Z,76.24
2022-09-24T00:51:16.998Z,75.43
2022-09-24T00:53:46.549Z,74.70
2022-09-24T00:56:15.507Z,74.77
2022-09-24T00:58:46.656Z,75.49
2022-09-24T01:01:14.086Z,75.54
2022-09-24T01:03:42.295Z,74.94
2022-09-24T01:06:09.420Z,75.15
2022-09-24T01:08:36.134Z,74.86
2022-09-24T01:11:24.554Z,75.83
2022-09-24T01:14:17.919Z,75.80
2022-09-24T01:16:59.123Z,75.72
2022-09-24T01:20:02.803Z,75.43
2022-09-24T01:22:41.220Z,76.07
2022-09-24T01:25:19.054Z,75.54
2022-09-24T01:27:59.002Z,75.87
2022-09-24T01:30:25.700Z,75.60
2022-09-24T01:32:56.221Z,75.57
2022-09-24T01:35:33.019Z,76.29
2022-09-24T01:38:06.766Z,76.22
2022-09-24T01:40:34.645Z,76.92
2022-09-24T01:43:05.046Z,77.28
2022-09-24T01:45:32.385Z,77.04
2022-09-24T01:48:02.868Z,76.96
2022-09-24T01:50:34.304Z,76.65
2022-09-24T01:53:16.457Z,76.26
2022-09-24T01:55:49.599Z,76.33
2022-09-24T01:58:23.652Z,76.95
2022-09-24T02:00:57.719Z,76.85
2022-09-24T02:03:29.759Z,76.40
2022-09-24T02:06:10.299Z,76.04
2022-09-24T02:08:41.935Z,76.37
2022-09-24T02:11:14.508Z,75.29
2022-09-24T02:14:03.195Z,75.55
2022-09-24T02:16:36.583Z,74.66
2022-09-24T02:19:07.572Z,76.02
2022-09-24T02:21:36.962Z,76.04
2022-09-24T02:24:08.320Z,75.96
2022-09-24T02:26:34.858Z,75.27
2022-09-24T02:29:01.602Z,75.76
2022-09-24T02:31:34.725Z,75.50
2022-09-24T02:34:23.374Z,74.58
2022-09-24T02:36:53.321Z,74.91
2022-09-24T02:39:20.290Z,75.74
2022-09-24T02:41:49.520Z,75.61
2022-09-24T02:44:16.743Z,75.14
2022-09-24T02:46:44.721Z,76.35
2022-09-24T02:49:11.618Z,76.08
2022-09-24T02:51:38.611Z,75.92
2022-09-24T02:54:05.813Z,76.19
2022-09-24T02:56:32.442Z,75.35
2022-09-24T02:58:59.302Z,74.86
2022-09-24T03:01:25.948Z,75.53
2022-09-24T03:03:52.469Z,76.24
2022-09-24T03:06:18.888Z,76.59
2022-09-24T03:08:45.524Z,75.84
2022-09-24T03:11:17.706Z,76.30
2022-09-24T03:13:46.013Z,75.97
2022-09-24T03:16:12.388Z,75.10
2022-09-24T03:18:38.847Z,75.21
2022-09-24T03:21:08.557Z,75.60
2022-09-24T03:23:35.653Z,75.78
2022-09-24T03:26:02.935Z,76.04
2022-09-24T03:28:29.650Z,76.17
2022-09-24T03:31:02.048Z,75.83
2022-09-24T03:33:35.026Z,75.60
2022-09-24T03:36:07.354Z,76.11
2022-09-24T03:38:35.203Z,76.41
2022-09-24T03:41:02.922Z,77.19
2022-09-24T03:43:29.572Z,76.50
2022-09-24T03:45:55.961Z,76.11
2022-09-24T03:48:23.831Z,76.25
2022-09-24T03:50:50.698Z,75.62
2022-09-24T03:53:18.280Z,75.24
2022-09-24T03:55:47.964Z,75.70
2022-09-24T03:58:15.849Z,76.38
2022-09-24T04:00:42.664Z,75.84
2022-09-24T04:03:10.166Z,76.29
2022-09-24T04:05:37.279Z,75.64
2022-09-24T04:08:06.098Z,75.59
2022-09-24T04:10:32.695Z,75.72
2022-09-24T04:12:59.174Z,75.86
2022-09-24T04:15:25.600Z,76.18
2022-09-24T04:17:56.927Z,75.18
2022-09-24T04:20:26.155Z,75.75
2022-09-24T04:22:57.414Z,75.98
2022-09-24T04:25:24.774Z,75.56
2022-09-24T04:28:00.387Z,76.43
2022-09-24T04:30:28.090Z,76.21
2022-09-24T04:32:54.627Z,76.25
2022-09-24T04:35:24.199Z,77.17
2022-09-24T04:37:50.725Z,77.25
2022-09-24T04:40:18.059Z,77.58
2022-09-24T04:42:46.205Z,78.10
2022-09-24T04:45:19.955Z,77.92
2022-09-24T04:47:52.409Z,77.47
2022-09-24T04:50:20.097Z,77.79
2022-09-24T04:52:52.381Z,77.15
2022-09-24T04:55:20.599Z,77.22
2022-09-24T04:57:47.660Z,77.00
2022-09-24T05:00:17.617Z,77.43
2022-09-24T05:02:45.223Z,77.94
2022-09-24T05:05:12.537Z,78.52
2022-09-24T05:07:39.886Z,78.59
2022-09-24T05:10:07.004Z,78.14
2022-09-24T05:12:36.252Z,78.72
2022-09-24T05:15:03.768Z,78.18
2022-09-24T05:17:30.202Z,77.17
2022-09-24T05:19:57.829Z,77.95
2022-09-24T05:22:25.906Z,78.01
2022-09-24T05:24:52.514Z,78.39
2022-09-24T05:27:19.582Z,78.89
2022-09-24T05:29:46.194Z,79.81
2022-09-24T05:32:15.260Z,80.14
2022-09-24T05:34:45.557Z,79.28
2022-09-24T05:37:13.904Z,79.55
2022-09-24T05:39:40.691Z,78.99
2022-09-24T05:42:09.972Z,78.55
2022-09-24T05:44:37.238Z,79.18
2022-09-24T05:47:03.765Z,78.38
2022-09-24T05:49:30.204Z,78.15
2022-09-24T05:51:57.681Z,78.26
2022-09-24T05:54:24.048Z,78.40
2022-09-24T05:56:50.510Z,78.03
2022-09-24T05:59:16.933Z,78.64
2022-09-24T06:01:43.350Z,79.20
2022-09-24T06:04:11.481Z,78.76
2022-09-24T06:06:37.940Z,78.63
2022-09-24T06:09:04.510Z,78.51
2022-09-24T06:11:39.693Z,79.23
2022-09-24T06:14:09.276Z,79.38
2022-09-24T06:16:36.003Z,79.11
2022-09-24T06:19:02.633Z,78.94
2022-09-24T06:21:29.112Z,79.50
2022-09-24T06:23:55.592Z,79.58
2022-09-24T06:26:22.214Z,79.27
2022-09-24T06:28:48.650Z,79.21
2022-09-24T06:31:15.480Z,79.42
2022-09-24T06:33:42.484Z,79.93
2022-09-24T06:36:09.442Z,80.12
2022-09-24T06:38:36.468Z,79.29
2022-09-24T06:41:07.205Z,78.85
2022-09-24T06:43:34.507Z,79.63
2022-09-24T06:46:02.483Z,79.89
2022-09-24T06:48:29.826Z,80.31
2022-09-24T06:50:56.489Z,80.43
2022-09-24T06:53:23.690Z,80.29
2022-09-24T06:55:50.346Z,80.41
2022-09-24T06:58:20.597Z,80.59
2022-09-24T07:00:58.704Z,79.92
2022-09-24T07:03:27.700Z,80.37
2022-09-24T07:05:54.511Z,80.31
2022-09-24T07:08:21.543Z,86.10
2022-09-24T07:10:49.217Z,86.05
2022-09-24T07:13:16.341Z,81.71
2022-09-24T07:15:43.946Z,77.09
2022-09-24T07:18:11.938Z,76.03
2022-09-24T07:20:38.749Z,76.67
2022-09-24T07:23:06.734Z,78.25
2022-09-24T07:25:33.641Z,78.33
2022-09-24T07:28:05.677Z,78.64
2022-09-24T07:30:33.738Z,77.96
2022-09-24T07:33:00.360Z,77.08
2022-09-24T07:35:28.338Z,76.93
2022-09-24T07:38:01.633Z,77.14
2022-09-24T07:40:29.544Z,76.70
2022-09-24T07:42:56.910Z,75.98
2022-09-24T07:45:24.314Z,76.54
2022-09-24T07:48:01.264Z,75.96
2022-09-24T07:50:29.747Z,75.92
2022-09-24T07:52:56.944Z,75.55
2022-09-24T07:55:24.438Z,74.98
2022-09-24T07:57:53.014Z,75.14
2022-09-24T08:00:21.086Z,74.97
2022-09-24T08:02:48.597Z,74.88
2022-09-24T08:05:16.551Z,75.22
2022-09-24T08:07:44.188Z,75.67
2022-09-24T08:10:10.908Z,75.65
2022-09-24T08:12:37.426Z,75.63
2022-09-24T08:15:04.248Z,75.29
2022-09-24T08:17:31.119Z,75.09
2022-09-24T08:19:57.530Z,74.94
2022-09-24T08:22:24.945Z,75.16
2022-09-24T08:24:51.514Z,75.15
2022-09-24T08:27:19.290Z,74.91
2022-09-24T08:29:46.344Z,75.32
2022-09-24T08:32:13.274Z,75.32
2022-09-24T08:34:40.607Z,74.33
2022-09-24T08:37:08.024Z,74.14
2022-09-24T08:39:35.106Z,73.78
2022-09-24T08:42:05.489Z,73.88
2022-09-24T08:45:03.422Z,73.66
2022-09-24T08:47:48.378Z,73.74
2022-09-24T08:50:17.379Z,74.92
2022-09-24T08:52:50.450Z,75.98
2022-09-24T08:55:34.131Z,76.31
2022-09-24T08:58:16.577Z,76.25
2022-09-24T09:00:57.647Z,76.21
2022-09-24T09:03:33.619Z,76.05
2022-09-24T09:06:10.504Z,75.88
2022-09-24T09:09:06.247Z,75.11
2022-09-24T09:11:36.647Z,74.67
2022-09-24T09:14:29.179Z,73.35
2022-09-24T09:17:06.683Z,73.30
2022-09-24T09:19:34.518Z,72.70
2022-09-24T09:22:17.371Z,73.07
2022-09-24T09:24:49.586Z,73.11
2022-09-24T09:27:18.047Z,72.77
2022-09-24T09:29:48.598Z,72.92
2022-09-24T09:32:36.446Z,72.54
2022-09-24T09:35:19.382Z,73.13
2022-09-24T09:38:17.132Z,72.74
2022-09-24T09:40:46.786Z,71.66
2022-09-24T09:43:14.272Z,72.67
2022-09-24T09:45:52.816Z,71.48
2022-09-24T09:48:22.341Z,70.43
2022-09-24T09:50:51.856Z,69.58
2022-09-24T09:53:23.369Z,67.88
2022-09-24T09:56:02.955Z,67.92
2022-09-24T09:58:34.553Z,67.01
2022-09-24T10:01:06.119Z,66.51
2022-09-24T10:03:47.073Z,66.80
2022-09-24T10:06:22.534Z,67.12
2022-09-24T10:08:49.170Z,66.17
2022-09-24T10:11:17.730Z,65.97
2022-09-24T10:13:45.554Z,68.98
2022-09-24T10:16:15.585Z,68.86
2022-09-24T10:18:51.245Z,69.19
2022-09-24T10:21:31.334Z,68.76
2022-09-24T10:24:04.545Z,68.59
2022-09-24T10:26:44.020Z,68.94
2022-09-24T10:29:34.639Z,68.79
2022-09-24T10:32:03.100Z,67.37
2022-09-24T10:34:29.746Z,67.84
2022-09-24T10:37:10.167Z,68.36
2022-09-24T10:39:37.498Z,67.92
2022-09-24T10:42:05.261Z,66.36
2022-09-24T10:44:37.171Z,66.34
2022-09-24T10:47:25.544Z,66.62
2022-09-24T10:50:07.637Z,66.05
2022-09-24T10:52:44.524Z,64.27
2022-09-24T10:55:37.101Z,64.98
2022-09-24T10:58:25.167Z,64.57
2022-09-24T11:01:05.020Z,64.83
2022-09-24T11:03:42.746Z,63.87
2022-09-24T11:06:39.816Z,62.73
2022-09-24T11:09:21.258Z,62.87
2022-09-24T11:17:00.097Z,63.21
2022-09-24T11:19:50.609Z,63.47
2022-09-24T11:22:44.982Z,62.75
2022-09-24T11:25:30.085Z,63.21
2022-09-24T11:27:59.415Z,63.22
2022-09-24T11:30:39.379Z,63.75
2022-09-24T11:33:37.423Z,63.60
2022-09-24T11:36:22.102Z,63.19
2022-09-24T11:39:15.161Z,63.54
2022-09-24T11:41:50.513Z,65.09
2022-09-24T11:44:52.143Z,65.19
2022-09-24T11:47:59.033Z,65.43
2022-09-24T11:50:48.054Z,64.84
2022-09-24T11:53:25.883Z,64.97
2022-09-24T11:56:20.482Z,64.62
2022-09-24T11:58:59.140Z,65.11
2022-09-24T12:01:32.581Z,65.36
2022-09-24T12:04:06.076Z,64.86
2022-09-24T12:06:42.134Z,64.16
2022-09-24T12:09:31.864Z,64.49
2022-09-24T12:12:07.149Z,65.27
2022-09-24T12:14:56.834Z,65.09
2022-09-24T12:17:29.121Z,64.95
2022-09-24T12:20:01.354Z,64.80
2022-09-24T12:22:29.802Z,64.07
2022-09-24T12:25:00.038Z,63.50
2022-09-24T12:27:36.636Z,63.69
2022-09-24T12:30:53.821Z,62.80
2022-09-24T12:33:35.240Z,62.54
2022-09-24T12:36:09.027Z,62.51
2022-09-24T12:38:43.481Z,62.64
2022-09-24T12:41:15.888Z,62.59
2022-09-24T12:44:12.026Z,62.83
2022-09-24T12:46:45.600Z,61.97
2022-09-24T12:49:26.243Z,58.95
2022-09-24T12:51:54.459Z,58.58
2022-09-24T12:54:29.219Z,58.15
2022-09-24T12:57:25.701Z,58.20
2022-09-24T12:59:58.240Z,58.47
2022-09-24T13:02:33.061Z,58.57
2022-09-24T13:05:02.422Z,58.40
2022-09-24T13:07:39.220Z,58.44
2022-09-24T13:10:22.448Z,56.80
2022-09-24T13:12:49.741Z,56.57
2022-09-24T13:15:38.492Z,56.63
2022-09-24T13:18:25.268Z,56.88
2022-09-24T13:21:00.973Z,56.33
2022-09-24T13:23:29.274Z,56.71
2022-09-24T13:26:04.759Z,57.14
2022-09-24T13:28:58.979Z,57.24
2022-09-24T13:31:28.509Z,56.80
2022-09-24T13:34:10.124Z,56.46
2022-09-24T13:36:48.046Z,55.99
2022-09-24T13:39:37.029Z,55.04
2022-09-24T13:42:19.751Z,55.10
2022-09-24T13:44:54.228Z,54.81
2022-09-24T13:47:33.038Z,54.92
2022-09-24T13:50:16.426Z,56.01
2022-09-24T13:52:47.958Z,55.88
2022-09-24T13:55:22.754Z,55.04
2022-09-24T13:57:49.493Z,55.27
2022-09-24T14:00:19.780Z,55.49
2022-09-24T14:03:00.927Z,55.16
2022-09-24T14:05:29.230Z,55.72
2022-09-24T14:08:05.771Z,55.70
2022-09-24T14:10:33.243Z,56.39
2022-09-24T14:13:23.184Z,56.14
2022-09-24T14:15:56.886Z,55.64
2022-09-24T14:18:25.588Z,56.49
2022-09-24T14:20:59.268Z,56.81
2022-09-24T14:23:33.306Z,57.63
2022-09-24T14:26:00.931Z,57.73
2022-09-24T14:28:32.603Z,57.61
2022-09-24T14:31:01.214Z,57.89
2022-09-24T14:33:31.705Z,57.85
2022-09-24T14:36:00.608Z,57.43
2022-09-24T14:38:41.506Z,57.05
2022-09-24T14:41:24.775Z,57.39
2022-09-24T14:43:54.661Z,57.51
2022-09-24T14:46:23.264Z,57.00
2022-09-24T14:48:51.065Z,56.20
2022-09-24T14:51:28.362Z,55.24
2022-09-24T14:54:00.440Z,55.42
2022-09-24T14:56:32.307Z,55.50
2022-09-24T14:58:59.811Z,55.56
2022-09-24T15:01:33.456Z,55.25
2022-09-24T15:04:03.989Z,55.60
2022-09-24T15:06:33.626Z,55.72
2022-09-24T15:09:15.564Z,54.13
2022-09-24T15:11:43.851Z,53.75
2022-09-24T15:14:19.976Z,53.68
2022-09-24T15:16:47.566Z,54.32
2022-09-24T15:19:22.708Z,54.28
2022-09-24T15:21:52.576Z,53.99
2022-09-24T15:24:21.111Z,54.08
2022-09-24T15:26:59.719Z,54.02
2022-09-24T15:29:26.391Z,53.86
2022-09-24T15:31:54.801Z,53.72
2022-09-24T15:34:21.290Z,53.68
2022-09-24T15:36:50.030Z,54.08
2022-09-24T15:39:18.450Z,54.24
2022-09-24T15:41:44.844Z,53.24
2022-09-24T15:44:28.361Z,52.11
2022-09-24T15:46:58.059Z,52.03
2022-09-24T15:49:25.485Z,51.79
2022-09-24T15:52:28.747Z,51.80
2022-09-24T15:54:57.717Z,52.03
2022-09-24T15:57:26.484Z,52.42
2022-09-24T15:59:53.402Z,52.57
2022-09-24T16:02:32.410Z,52.64
2022-09-24T16:05:03.302Z,53.08
2022-09-24T16:07:30.443Z,53.70
2022-09-24T16:09:56.793Z,54.07
2022-09-24T16:12:27.957Z,54.58
2022-09-24T16:14:58.796Z,55.32
2022-09-24T16:17:25.715Z,55.76
2022-09-24T16:19:52.147Z,56.20
2022-09-24T16:22:20.600Z,56.64
2022-09-24T16:24:47.673Z,56.64
2022-09-24T16:27:14.127Z,56.52
2022-09-24T16:29:40.519Z,56.82
2022-09-24T16:32:06.937Z,57.40
2022-09-24T16:34:34.374Z,58.33
2022-09-24T16:37:00.924Z,59.23
2022-09-24T16:39:27.298Z,59.35
2022-09-24T16:41:54.665Z,59.36
2022-09-24T16:44:21.474Z,59.32
2022-09-24T16:46:47.935Z,59.36
2022-09-24T16:49:14.390Z,59.38
2022-09-24T16:51:40.779Z,59.44
2022-09-24T16:54:07.183Z,59.39
2022-09-24T16:56:33.682Z,59.54
2022-09-24T16:59:00.206Z,60.99
2022-09-24T17:01:26.673Z,62.58
2022-09-24T17:03:55.210Z,62.58
2022-09-24T17:06:26.791Z,63.06
2022-09-24T17:09:12.392Z,63.59
2022-09-24T17:11:40.145Z,64.79
2022-09-24T17:14:07.712Z,65.17
2022-09-24T17:16:34.804Z,65.05
2022-09-24T17:19:01.503Z,65.30
2022-09-24T17:21:28.180Z,65.27
2022-09-24T17:23:54.700Z,65.75
2022-09-24T17:26:22.617Z,65.71
2022-09-24T17:28:52.791Z,65.92
2022-09-24T17:31:22.070Z,66.42
2022-09-24T17:33:55.739Z,66.54
2022-09-24T17:36:22.970Z,66.93
2022-09-24T17:38:49.446Z,66.96
2022-09-24T17:41:15.917Z,66.58
2022-09-24T17:43:42.398Z,66.47
2022-09-24T17:46:15.300Z,68.21
2022-09-24T17:48:44.495Z,68.14
2022-09-24T17:51:19.811Z,68.51
2022-09-24T17:53:46.872Z,70.18
2022-09-24T17:56:14.383Z,71.20
2022-09-24T17:58:44.272Z,71.39
2022-09-24T18:01:12.917Z,71.44
2022-09-24T18:03:39.539Z,71.24
2022-09-24T18:06:08.551Z,71.46
2022-09-24T18:08:39.687Z,71.62
2022-09-24T18:11:08.504Z,72.58
2022-09-24T18:13:35.559Z,72.98
2022-09-24T18:16:14.184Z,72.80
2022-09-24T18:18:41.430Z,73.45
2022-09-24T18:21:10.524Z,73.43
2022-09-24T18:23:37.854Z,73.72
2022-09-24T18:26:10.460Z,73.85
2022-09-24T18:28:41.432Z,74.06
2022-09-24T18:31:10.301Z,73.87
2022-09-24T18:33:39.193Z,74.06
2022-09-24T18:36:08.710Z,75.04
2022-09-24T18:38:35.554Z,74.70
2022-09-24T18:41:10.445Z,75.78
2022-09-24T18:43:37.636Z,76.25
2022-09-24T18:46:11.223Z,76.46
2022-09-24T18:48:39.219Z,76.99
2022-09-24T18:51:06.541Z,76.45
2022-09-24T18:53:35.172Z,76.76
2022-09-24T18:56:08.740Z,77.49
2022-09-24T18:58:35.194Z,78.28
2022-09-24T19:01:03.838Z,76.92
2022-09-24T19:03:31.130Z,75.13
2022-09-24T19:06:04.945Z,74.77
2022-09-24T19:08:32.187Z,75.09
2022-09-24T19:11:09.182Z,75.27
2022-09-24T19:13:38.470Z,75.55
2022-09-24T19:16:13.955Z,75.64
2022-09-24T19:18:40.963Z,75.75
2022-09-24T19:21:09.668Z,76.65
2022-09-24T19:23:42.345Z,77.74
2022-09-24T19:26:09.990Z,78.13
2022-09-24T19:28:39.035Z,78.40
2022-09-24T19:31:06.191Z,78.01
2022-09-24T19:33:32.668Z,78.45
2022-09-24T19:36:02.121Z,78.12
2022-09-24T19:38:31.849Z,77.70
2022-09-24T19:41:02.801Z,78.19
2022-09-24T19:43:32.820Z,78.02
2022-09-24T19:46:02.473Z,77.61
2022-09-24T19:48:31.310Z,77.78
2022-09-24T19:51:00.854Z,77.27
2022-09-24T19:53:27.771Z,78.24
2022-09-24T19:55:54.233Z,78.37
2022-09-24T19:58:20.667Z,78.55
2022-09-24T20:00:47.093Z,78.76
2022-09-24T20:03:13.582Z,79.51
2022-09-24T20:05:43.185Z,80.43
2022-09-24T20:08:12.489Z,80.21
2022-09-24T20:10:40.212Z,79.68
2022-09-24T20:13:10.517Z,79.83
2022-09-24T20:15:38.619Z,79.95
2022-09-24T20:18:06.534Z,80.88
2022-09-24T20:20:33.245Z,79.97
2022-09-24T20:23:00.131Z,80.89
2022-09-24T20:25:45.934Z,81.27
2022-09-24T20:28:17.318Z,81.57
2022-09-24T20:30:45.216Z,81.64
2022-09-24T20:33:12.897Z,81.69
2022-09-24T20:35:40.991Z,81.20
2022-09-24T20:38:08.082Z,81.32
2022-09-24T20:40:36.538Z,82.33
2022-09-24T20:43:03.738Z,82.09
2022-09-24T20:45:31.250Z,82.99
2022-09-24T20:47:57.704Z,82.54
2022-09-24T20:50:24.189Z,82.65
2022-09-24T20:52:50.666Z,83.06
2022-09-24T20:55:17.300Z,83.12
2022-09-24T20:57:44.242Z,83.39
2022-09-24T21:00:14.122Z,83.00
2022-09-24T21:02:41.920Z,82.74
2022-09-24T21:05:10.322Z,83.50
2022-09-24T21:07:42.764Z,82.74
2022-09-24T21:10:11.172Z,82.45
2022-09-24T21:12:38.541Z,82.57
2022-09-24T21:15:06.926Z,82.49
2022-09-24T21:17:33.997Z,83.38
2022-09-24T21:20:00.709Z,83.38
2022-09-24T21:22:27.199Z,83.22
2022-09-24T21:24:53.647Z,82.64
2022-09-24T21:27:20.321Z,82.83
2022-09-24T21:29:48.163Z,83.19
2022-09-24T21:32:16.690Z,83.30
2022-09-24T21:34:44.102Z,83.49
2022-09-24T21:37:16.923Z,84.21
2022-09-24T21:39:44.767Z,84.25
2022-09-24T21:42:12.037Z,84.38
2022-09-24T21:44:38.813Z,83.68
2022-09-24T21:47:05.330Z,84.09
2022-09-24T21:49:33.510Z,83.88
2022-09-24T21:51:59.970Z,83.71
2022-09-24T21:54:26.447Z,83.61
2022-09-24T21:56:54.155Z,83.51
2022-09-24T21:59:39.044Z,83.96
2022-09-24T22:02:05.522Z,83.65
2022-09-24T22:04:33.081Z,84.02
2022-09-24T22:07:00.069Z,83.82
2022-09-24T22:09:26.775Z,83.56
2022-09-24T22:11:55.707Z,83.64
2022-09-24T22:14:22.945Z,83.25
2022-09-24T22:16:49.481Z,83.15
2022-09-24T22:19:15.914Z,83.49
2022-09-24T22:21:42.343Z,84.29
2022-09-24T22:24:09.262Z,85.24
2022-09-24T22:26:35.800Z,85.42
2022-09-24T22:29:03.811Z,85.65
2022-09-24T22:31:30.849Z,85.41
2022-09-24T22:34:15.580Z,85.41
2022-09-24T22:36:42.089Z,85.87
2022-09-24T22:39:08.625Z,85.49
2022-09-24T22:41:38.933Z,85.18
2022-09-24T22:44:07.474Z,84.68
2022-09-24T22:46:36.012Z,85.02
2022-09-24T22:49:04.864Z,84.27
2022-09-24T22:51:31.644Z,84.76
2022-09-24T22:54:00.071Z,84.53
2022-09-24T22:56:26.995Z,84.58
2022-09-24T22:58:56.156Z,84.44
2022-09-24T23:01:28.018Z,84.94
2022-09-24T23:03:55.918Z,84.73
2022-09-24T23:06:23.259Z,84.71
2022-09-24T23:08:51.193Z,85.51
2022-09-24T23:11:29.144Z,85.15
2022-09-24T23:13:58.265Z,85.31
2022-09-24T23:16:27.319Z,85.22
2022-09-24T23:18:56.343Z,84.52
2022-09-24T23:21:25.826Z,84.49
2022-09-24T23:23:57.109Z,84.46
2022-09-24T23:26:25.737Z,84.73
2022-09-24T23:28:54.052Z,84.20
2022-09-24T23:31:25.292Z,84.52
2022-09-24T23:33:53.401Z,84.60
2022-09-24T23:36:19.839Z,84.78
2022-09-24T23:38:46.387Z,84.68
2022-09-24T23:41:13.436Z,84.87
2022-09-24T23:43:40.948Z,84.68
2022-09-24T23:46:08.409Z,84.30
2022-09-24T23:48:35.145Z,84.75
2022-09-24T23:51:01.574Z,84.67
2022-09-24T23:53:27.994Z,84.40
2022-09-24T23:55:55.281Z,84.63
2022-09-24T23:58:23.729Z,83.83
